createdAt,value
2018-12-27T00:01:05.184Z,95.70
2018-12-27T00:03:35.948Z,95.60
2018-12-27T00:06:06.518Z,95.70
2018-12-27T00:08:37.460Z,95.70
2018-12-27T00:11:08.186Z,96.10
2018-12-27T00:13:38.845Z,95.80
2018-12-27T00:16:09.560Z,95.80
2018-12-27T00:18:40.175Z,95.90
2018-12-27T00:21:10.731Z,95.80
2018-12-27T00:23:41.500Z,95.90
2018-12-27T00:26:12.583Z,95.80
2018-12-27T00:28:43.126Z,95.80
2018-12-27T00:31:13.899Z,95.80
2018-12-27T00:33:44.616Z,95.80
2018-12-27T00:36:15.294Z,95.90
2018-12-27T00:38:46.014Z,95.90
2018-12-27T00:41:16.711Z,96.00
2018-12-27T00:43:47.824Z,96.00
2018-12-27T00:46:18.455Z,96.00
2018-12-27T00:48:49.205Z,95.90
2018-12-27T00:51:19.831Z,96.00
2018-12-27T00:53:50.885Z,95.90
2018-12-27T00:56:21.649Z,95.90
2018-12-27T00:58:52.236Z,95.90
2018-12-27T01:01:22.945Z,96.00
2018-12-27T01:03:53.721Z,96.00
2018-12-27T01:06:24.555Z,96.00
2018-12-27T01:08:55.528Z,96.00
2018-12-27T01:11:26.196Z,96.00
2018-12-27T01:13:57.238Z,96.10
2018-12-27T01:16:28.183Z,96.20
2018-12-27T01:18:59.246Z,96.20
2018-12-27T01:21:30.174Z,96.40
2018-12-27T01:24:01.042Z,96.20
2018-12-27T01:26:32.018Z,96.20
2018-12-27T01:29:02.610Z,96.20
2018-12-27T01:31:33.646Z,96.20
2018-12-27T01:34:04.362Z,96.20
2018-12-27T01:36:35.323Z,96.30
2018-12-27T01:39:07.129Z,96.20
2018-12-27T01:41:38.136Z,96.20
2018-12-27T01:44:09.039Z,96.20
2018-12-27T01:46:41.248Z,96.30
2018-12-27T01:49:11.954Z,96.30
2018-12-27T01:51:43.184Z,96.70
2018-12-27T01:54:14.099Z,96.30
2018-12-27T01:56:44.937Z,96.30
2018-12-27T01:59:16.074Z,96.30
2018-12-27T02:01:46.813Z,96.30
2018-12-27T02:04:17.922Z,96.30
2018-12-27T02:06:48.703Z,96.40
2018-12-27T02:09:19.361Z,96.30
2018-12-27T02:14:43.348Z,96.40
2018-12-27T02:17:14.269Z,96.40
2018-12-27T02:19:45.265Z,96.50
2018-12-27T02:22:16.311Z,96.30
2018-12-27T02:24:47.255Z,96.30
2018-12-27T02:27:17.975Z,96.30
2018-12-27T02:29:48.834Z,96.30
2018-12-27T02:32:19.581Z,96.30
2018-12-27T02:34:50.439Z,96.50
2018-12-27T02:37:21.166Z,96.50
2018-12-27T02:39:51.871Z,96.60
2018-12-27T02:42:22.865Z,96.50
2018-12-27T02:44:53.735Z,96.50
2018-12-27T02:47:24.434Z,96.50
2018-12-27T02:49:55.237Z,96.50
2018-12-27T02:52:25.983Z,96.50
2018-12-27T02:54:56.661Z,96.50
2018-12-27T02:57:45.745Z,96.40
2018-12-27T03:00:16.910Z,96.10
2018-12-27T03:02:47.673Z,96.00
2018-12-27T03:05:18.438Z,96.20
2018-12-27T03:07:49.304Z,96.10
2018-12-27T03:10:19.947Z,96.30
2018-12-27T03:12:50.674Z,96.50
2018-12-27T03:15:21.381Z,96.30
2018-12-27T03:17:52.170Z,96.70
2018-12-27T03:20:24.858Z,96.60
2018-12-27T03:22:55.573Z,96.70
2018-12-27T03:25:26.306Z,96.70
2018-12-27T03:27:57.264Z,96.70
2018-12-27T03:30:28.397Z,96.90
2018-12-27T03:32:59.415Z,97.00
2018-12-27T03:35:30.737Z,97.10
2018-12-27T03:38:01.430Z,97.00
2018-12-27T03:40:32.240Z,97.00
2018-12-27T03:43:02.803Z,97.00
2018-12-27T03:45:33.486Z,97.20
2018-12-27T03:48:04.226Z,97.60
2018-12-27T03:50:34.923Z,97.30
2018-12-27T03:53:05.942Z,97.30
2018-12-27T03:55:36.839Z,97.30
2018-12-27T03:58:07.554Z,97.30
2018-12-27T04:00:38.760Z,97.40
2018-12-27T04:03:09.475Z,97.40
2018-12-27T04:05:40.539Z,97.40
2018-12-27T04:08:11.484Z,97.50
2018-12-27T04:10:42.262Z,97.50
2018-12-27T04:13:13.360Z,97.90
2018-12-27T04:15:44.423Z,97.50
2018-12-27T04:18:17.450Z,97.40
2018-12-27T04:20:48.039Z,97.50
2018-12-27T04:23:18.533Z,97.50
2018-12-27T04:25:49.341Z,97.50
2018-12-27T04:28:20.095Z,97.50
2018-12-27T04:30:50.772Z,97.60
2018-12-27T04:33:21.637Z,97.60
2018-12-27T04:35:53.487Z,97.60
2018-12-27T04:38:24.467Z,97.50
2018-12-27T04:40:55.127Z,97.50
2018-12-27T04:43:26.294Z,97.70
2018-12-27T04:45:56.941Z,97.40
2018-12-27T04:48:27.367Z,97.40
2018-12-27T04:50:58.409Z,97.20
2018-12-27T04:53:28.785Z,97.10
2018-12-27T04:55:59.533Z,97.10
2018-12-27T04:58:30.027Z,97.00
2018-12-27T05:01:00.551Z,97.00
2018-12-27T05:03:31.180Z,97.00
2018-12-27T05:06:02.018Z,96.90
2018-12-27T05:08:32.679Z,96.90
2018-12-27T05:11:03.382Z,96.90
2018-12-27T05:13:33.877Z,96.90
2018-12-27T05:16:04.510Z,96.80
2018-12-27T05:18:34.968Z,96.90
2018-12-27T05:21:05.721Z,96.50
2018-12-27T05:23:36.466Z,96.50
2018-12-27T05:26:06.982Z,96.40
2018-12-27T05:28:37.626Z,96.50
2018-12-27T05:31:08.138Z,96.40
2018-12-27T05:33:38.602Z,96.40
2018-12-27T05:36:09.314Z,96.90
2018-12-27T05:38:39.850Z,96.80
2018-12-27T05:41:10.483Z,96.80
2018-12-27T05:43:41.309Z,97.00
2018-12-27T05:46:12.086Z,97.20
2018-12-27T05:48:42.847Z,96.70
2018-12-27T05:51:13.493Z,96.70
2018-12-27T05:53:44.249Z,97.20
2018-12-27T05:56:15.708Z,96.80
2018-12-27T05:58:46.713Z,96.70
2018-12-27T06:01:17.489Z,96.60
2018-12-27T06:03:48.115Z,96.40
2018-12-27T06:06:18.899Z,96.40
2018-12-27T06:08:49.503Z,96.70
2018-12-27T06:11:21.347Z,96.60
2018-12-27T06:13:53.205Z,96.70
2018-12-27T06:16:23.780Z,96.70
2018-12-27T06:18:54.573Z,96.70
2018-12-27T06:21:25.023Z,96.70
2018-12-27T06:23:55.574Z,96.70
2018-12-27T06:26:26.374Z,97.00
2018-12-27T06:28:56.812Z,97.10
2018-12-27T06:31:27.367Z,97.30
2018-12-27T06:33:57.850Z,97.20
2018-12-27T06:36:28.249Z,97.50
2018-12-27T06:38:59.147Z,97.00
2018-12-27T06:41:29.814Z,97.20
2018-12-27T06:44:00.499Z,97.30
2018-12-27T06:46:30.868Z,97.20
2018-12-27T06:49:01.289Z,97.40
2018-12-27T06:51:31.720Z,97.60
2018-12-27T06:54:02.365Z,97.50
2018-12-27T06:56:32.793Z,97.70
2018-12-27T06:59:03.370Z,97.80
2018-12-27T07:01:33.760Z,97.80
2018-12-27T07:04:04.560Z,98.20
2018-12-27T07:06:35.012Z,98.20
2018-12-27T07:09:08.050Z,98.20
2018-12-27T07:11:38.498Z,98.20
2018-12-27T07:14:08.892Z,98.30
2018-12-27T07:16:39.584Z,98.60
2018-12-27T07:19:10.218Z,98.50
2018-12-27T07:21:41.310Z,98.30
2018-12-27T07:24:11.836Z,98.20
2018-12-27T07:26:42.318Z,98.30
2018-12-27T07:29:12.875Z,98.60
2018-12-27T07:31:43.478Z,99.00
2018-12-27T07:34:13.932Z,99.00
2018-12-27T07:36:44.299Z,99.30
2018-12-27T07:39:15.017Z,99.30
2018-12-27T07:41:45.768Z,99.50
2018-12-27T07:44:17.420Z,99.60
2018-12-27T07:46:48.241Z,99.60
2018-12-27T07:49:18.868Z,99.70
2018-12-27T07:51:49.492Z,99.60
2018-12-27T07:54:20.453Z,99.80
2018-12-27T07:56:50.839Z,99.80
2018-12-27T07:59:21.614Z,99.90
2018-12-27T08:01:52.486Z,99.90
2018-12-27T08:04:23.493Z,99.90
2018-12-27T08:06:53.908Z,99.90
2018-12-27T08:09:24.628Z,99.90
2018-12-27T08:11:55.312Z,99.90
2018-12-27T08:14:25.993Z,99.90
2018-12-27T08:16:56.763Z,99.90
2018-12-27T08:19:27.412Z,99.90
2018-12-27T08:21:58.675Z,99.90
2018-12-27T08:24:29.477Z,99.90
2018-12-27T08:27:00.209Z,99.90
2018-12-27T08:29:32.320Z,99.90
2018-12-27T08:32:03.104Z,99.90
2018-12-27T08:34:33.534Z,99.90
2018-12-27T08:37:04.072Z,99.90
2018-12-27T08:39:34.540Z,99.90
2018-12-27T08:42:05.160Z,99.90
2018-12-27T08:44:35.904Z,99.90
2018-12-27T08:47:06.642Z,99.90
2018-12-27T08:49:37.374Z,99.90
2018-12-27T08:52:08.542Z,99.90
2018-12-27T08:54:39.416Z,99.90
2018-12-27T08:57:10.290Z,99.90
2018-12-27T08:59:40.820Z,99.90
2018-12-27T09:02:12.735Z,99.90
2018-12-27T09:04:44.008Z,99.90
2018-12-27T09:07:14.892Z,99.90
2018-12-27T09:09:46.329Z,99.90
2018-12-27T09:12:17.193Z,99.90
2018-12-27T09:14:49.300Z,99.90
2018-12-27T09:17:19.988Z,99.90
2018-12-27T09:19:50.801Z,99.90
2018-12-27T09:22:21.533Z,99.90
2018-12-27T09:24:52.065Z,99.90
2018-12-27T09:27:22.727Z,99.90
2018-12-27T09:29:53.286Z,99.90
2018-12-27T09:32:23.751Z,99.90
2018-12-27T09:34:54.390Z,99.90
2018-12-27T09:37:24.908Z,99.90
2018-12-27T09:39:55.638Z,99.90
2018-12-27T09:42:27.042Z,99.90
2018-12-27T09:44:57.549Z,99.90
2018-12-27T09:47:29.300Z,99.90
2018-12-27T09:49:59.726Z,99.90
2018-12-27T09:52:30.594Z,99.90
2018-12-27T09:55:01.396Z,99.90
2018-12-27T09:57:32.296Z,99.90
2018-12-27T10:00:03.233Z,99.90
2018-12-27T10:02:34.076Z,99.90
2018-12-27T10:05:05.150Z,99.90
2018-12-27T10:07:35.816Z,99.90
2018-12-27T10:10:07.221Z,99.90
2018-12-27T10:12:37.672Z,99.90
2018-12-27T10:15:09.820Z,99.90
2018-12-27T10:17:40.370Z,99.90
2018-12-27T10:20:10.972Z,99.90
2018-12-27T10:22:41.435Z,99.90
2018-12-27T10:25:14.424Z,99.90
2018-12-27T10:27:45.968Z,99.90
2018-12-27T10:30:16.804Z,99.90
2018-12-27T10:32:47.478Z,99.90
2018-12-27T10:35:18.125Z,99.90
2018-12-27T10:37:49.189Z,99.90
2018-12-27T10:40:20.135Z,99.90
2018-12-27T10:42:50.789Z,99.90
2018-12-27T10:45:22.924Z,99.90
2018-12-27T10:47:53.394Z,99.90
2018-12-27T10:50:23.952Z,99.90
2018-12-27T10:52:54.751Z,99.90
2018-12-27T10:55:25.704Z,99.90
2018-12-27T10:57:56.388Z,99.90
2018-12-27T11:00:27.465Z,99.90
2018-12-27T11:02:58.198Z,99.90
2018-12-27T11:05:28.807Z,99.90
2018-12-27T11:07:59.231Z,99.90
2018-12-27T11:10:30.095Z,99.90
2018-12-27T11:13:01.273Z,99.90
2018-12-27T11:15:31.955Z,99.90
2018-12-27T11:18:02.549Z,99.90
2018-12-27T11:20:33.637Z,99.90
2018-12-27T11:23:04.805Z,99.90
2018-12-27T11:25:35.836Z,99.90
2018-12-27T11:28:06.479Z,99.90
2018-12-27T11:30:37.375Z,99.90
2018-12-27T11:33:08.501Z,99.90
2018-12-27T11:35:39.380Z,99.90
2018-12-27T11:38:09.935Z,99.90
2018-12-27T11:40:40.629Z,99.90
2018-12-27T11:43:11.383Z,99.90
2018-12-27T11:45:42.264Z,99.90
2018-12-27T11:48:12.992Z,99.90
2018-12-27T11:50:43.593Z,99.90
2018-12-27T11:53:14.104Z,99.90
2018-12-27T11:55:44.796Z,99.90
2018-12-27T11:58:15.568Z,99.90
2018-12-27T12:00:46.536Z,99.90
2018-12-27T12:03:17.080Z,99.90
2018-12-27T12:05:50.732Z,99.90
2018-12-27T12:08:21.262Z,99.90
2018-12-27T12:10:51.842Z,99.90
2018-12-27T12:13:22.946Z,99.90
2018-12-27T12:15:53.370Z,99.90
2018-12-27T12:18:23.798Z,99.90
2018-12-27T12:20:54.626Z,99.90
2018-12-27T12:23:26.074Z,99.90
2018-12-27T12:25:57.042Z,99.90
2018-12-27T12:28:27.756Z,99.90
2018-12-27T12:30:58.443Z,99.90
2018-12-27T12:33:28.997Z,99.90
2018-12-27T12:35:59.742Z,99.90
2018-12-27T12:38:30.680Z,99.90
2018-12-27T12:41:01.224Z,99.90
2018-12-27T12:43:32.280Z,99.90
2018-12-27T12:46:02.699Z,99.90
2018-12-27T12:48:33.106Z,99.90
2018-12-27T12:51:03.699Z,99.90
2018-12-27T12:53:34.639Z,99.90
2018-12-27T12:56:05.149Z,99.90
2018-12-27T12:58:35.980Z,99.90
2018-12-27T13:01:07.505Z,99.90
2018-12-27T13:03:39.512Z,99.90
2018-12-27T13:06:10.390Z,99.90
2018-12-27T13:08:40.941Z,99.90
2018-12-27T13:11:11.431Z,99.90
2018-12-27T13:13:42.566Z,99.90
2018-12-27T13:16:13.038Z,99.90
2018-12-27T13:18:47.299Z,99.90
2018-12-27T13:21:16.363Z,99.90
2018-12-27T13:23:47.003Z,99.90
2018-12-27T13:26:17.518Z,99.90
2018-12-27T13:28:48.489Z,99.90
2018-12-27T13:31:19.376Z,99.90
2018-12-27T13:33:50.059Z,99.90
2018-12-27T13:36:25.323Z,99.90
2018-12-27T13:38:53.120Z,99.90
2018-12-27T13:41:23.949Z,99.90
2018-12-27T13:43:54.376Z,99.90
2018-12-27T13:46:25.135Z,99.90
2018-12-27T13:48:55.867Z,99.90
2018-12-27T13:51:26.610Z,99.90
2018-12-27T13:53:57.085Z,99.90
2018-12-27T13:56:28.068Z,99.90
2018-12-27T13:58:58.708Z,99.90
2018-12-27T14:01:29.450Z,99.90
2018-12-27T14:03:59.971Z,99.90
2018-12-27T14:06:32.864Z,99.90
2018-12-27T14:09:04.635Z,99.90
2018-12-27T14:11:35.542Z,99.90
2018-12-27T14:14:06.409Z,99.90
2018-12-27T14:16:48.812Z,99.90
2018-12-27T14:19:19.648Z,99.90
2018-12-27T14:21:50.557Z,99.90
2018-12-27T14:24:21.489Z,99.90
2018-12-27T14:26:52.271Z,99.90
2018-12-27T14:29:22.894Z,99.90
2018-12-27T14:31:53.631Z,99.90
2018-12-27T14:34:24.061Z,99.90
2018-12-27T14:36:54.871Z,99.90
2018-12-27T14:39:25.394Z,99.90
2018-12-27T14:41:56.332Z,99.90
2018-12-27T14:44:27.208Z,99.90
2018-12-27T14:46:58.484Z,99.90
2018-12-27T14:49:29.263Z,99.90
2018-12-27T14:51:59.847Z,99.90
2018-12-27T14:54:30.537Z,99.90
2018-12-27T14:57:01.566Z,99.90
2018-12-27T14:59:32.027Z,99.90
2018-12-27T15:02:02.568Z,99.90
2018-12-27T15:04:33.281Z,99.90
2018-12-27T15:07:04.006Z,99.90
2018-12-27T15:09:34.848Z,99.90
2018-12-27T15:12:05.326Z,99.90
2018-12-27T15:14:36.122Z,99.90
2018-12-27T15:17:06.813Z,99.90
2018-12-27T15:19:37.238Z,99.90
2018-12-27T15:22:07.690Z,99.90
2018-12-27T15:24:38.380Z,99.90
2018-12-27T15:27:08.896Z,99.90
2018-12-27T15:29:39.726Z,99.90
2018-12-27T15:32:10.448Z,99.90
2018-12-27T15:34:41.610Z,99.90
2018-12-27T15:37:12.240Z,99.90
2018-12-27T15:39:43.062Z,99.90
2018-12-27T15:42:13.496Z,99.90
2018-12-27T15:44:44.264Z,99.90
2018-12-27T15:47:14.972Z,99.90
2018-12-27T15:49:45.734Z,99.90
2018-12-27T15:52:16.980Z,99.90
2018-12-27T15:54:47.653Z,99.90
2018-12-27T15:57:18.312Z,99.90
2018-12-27T15:59:49.371Z,99.90
2018-12-27T16:02:20.649Z,99.90
2018-12-27T16:04:51.485Z,99.90
2018-12-27T16:07:22.153Z,99.90
2018-12-27T16:09:53.055Z,99.90
2018-12-27T16:12:23.666Z,99.90
2018-12-27T16:14:54.400Z,99.90
2018-12-27T16:17:25.663Z,99.90
2018-12-27T16:19:56.241Z,99.90
2018-12-27T16:22:26.827Z,99.90
2018-12-27T16:24:57.730Z,99.90
2018-12-27T16:27:28.186Z,99.90
2018-12-27T16:29:59.040Z,99.90
2018-12-27T16:32:29.511Z,99.90
2018-12-27T16:35:00.735Z,99.90
2018-12-27T16:37:31.220Z,99.90
2018-12-27T16:40:01.945Z,99.90
2018-12-27T16:42:33.846Z,99.90
2018-12-27T16:45:04.893Z,99.90
2018-12-27T16:47:35.480Z,99.90
2018-12-27T16:50:07.443Z,99.90
2018-12-27T16:52:38.312Z,99.90
2018-12-27T16:55:09.524Z,99.90
2018-12-27T16:57:40.259Z,99.90
2018-12-27T17:00:11.946Z,99.90
2018-12-27T17:02:42.891Z,99.90
2018-12-27T17:05:13.889Z,99.90
2018-12-27T17:07:45.893Z,99.90
2018-12-27T17:10:16.753Z,99.90
2018-12-27T17:12:47.785Z,99.90
2018-12-27T17:15:19.385Z,99.90
2018-12-27T17:17:50.445Z,99.90
2018-12-27T17:20:21.167Z,99.90
2018-12-27T17:22:52.147Z,99.90
2018-12-27T17:25:22.983Z,99.90
2018-12-27T17:27:53.833Z,99.90
2018-12-27T17:30:24.526Z,99.90
2018-12-27T17:32:55.079Z,99.90
2018-12-27T17:35:25.821Z,99.90
2018-12-27T17:37:56.517Z,99.90
2018-12-27T17:40:27.258Z,99.90
2018-12-27T17:42:57.718Z,99.90
2018-12-27T17:45:30.032Z,99.90
2018-12-27T17:48:00.650Z,99.90
2018-12-27T17:50:31.347Z,99.90
2018-12-27T17:53:02.089Z,99.90
2018-12-27T17:55:33.188Z,99.90
2018-12-27T17:58:04.888Z,99.90
2018-12-27T18:00:36.326Z,99.90
2018-12-27T18:03:07.704Z,99.90
2018-12-27T18:05:39.402Z,99.90
2018-12-27T18:08:09.990Z,99.90
2018-12-27T18:10:40.359Z,99.90
2018-12-27T18:13:11.221Z,99.90
2018-12-27T18:15:42.281Z,99.90
2018-12-27T18:18:13.241Z,99.90
2018-12-27T18:20:44.145Z,99.90
2018-12-27T18:23:15.124Z,99.90
2018-12-27T18:25:45.707Z,99.90
2018-12-27T18:28:16.451Z,99.90
2018-12-27T18:30:47.119Z,99.90
2018-12-27T18:33:17.933Z,99.90
2018-12-27T18:35:48.651Z,99.90
2018-12-27T18:38:19.313Z,99.90
2018-12-27T18:40:50.050Z,99.90
2018-12-27T18:43:21.949Z,99.90
2018-12-27T18:45:52.410Z,99.90
2018-12-27T18:48:23.219Z,99.90
2018-12-27T18:50:53.787Z,99.90
2018-12-27T18:53:25.005Z,99.90
2018-12-27T18:55:56.198Z,99.90
2018-12-27T18:58:27.137Z,99.90
2018-12-27T19:00:57.862Z,99.90
2018-12-27T19:03:28.677Z,99.90
2018-12-27T19:06:00.139Z,99.90
2018-12-27T19:08:30.827Z,99.90
2018-12-27T19:11:37.885Z,99.90
2018-12-27T19:14:08.556Z,99.90
2018-12-27T19:16:40.448Z,99.90
2018-12-27T19:19:11.286Z,99.90
2018-12-27T19:22:01.172Z,99.90
2018-12-27T19:24:32.380Z,99.90
2018-12-27T19:27:03.398Z,99.90
2018-12-27T19:29:34.738Z,99.90
2018-12-27T19:32:05.850Z,99.90
2018-12-27T19:34:36.625Z,99.90
2018-12-27T19:37:07.462Z,99.90
2018-12-27T19:39:38.700Z,99.90
2018-12-27T19:42:09.749Z,99.90
2018-12-27T19:44:40.682Z,99.90
2018-12-27T19:47:11.590Z,99.90
2018-12-27T19:49:42.234Z,99.90
2018-12-27T19:52:13.122Z,99.90
2018-12-27T19:54:43.941Z,99.90
2018-12-27T19:57:14.664Z,99.90
2018-12-27T19:59:45.346Z,99.90
2018-12-27T20:02:16.308Z,99.90
2018-12-27T20:04:46.966Z,99.90
2018-12-27T20:07:18.119Z,99.90
2018-12-27T20:09:48.749Z,99.90
2018-12-27T20:12:19.305Z,99.90
2018-12-27T20:14:50.152Z,99.90
2018-12-27T20:17:21.058Z,99.90
2018-12-27T20:19:51.546Z,99.90
2018-12-27T20:22:22.185Z,99.90
2018-12-27T20:24:52.866Z,99.90
2018-12-27T20:27:23.636Z,99.90
2018-12-27T20:29:54.449Z,99.90
2018-12-27T20:32:25.095Z,99.90
2018-12-27T20:34:56.199Z,99.90
2018-12-27T20:37:26.831Z,99.90
2018-12-27T20:39:58.255Z,99.90
2018-12-27T20:42:29.004Z,99.90
2018-12-27T20:44:59.802Z,99.90
2018-12-27T20:47:30.762Z,99.90
2018-12-27T20:50:01.330Z,99.90
2018-12-27T20:52:32.226Z,99.90
2018-12-27T20:55:03.168Z,99.90
2018-12-27T20:57:33.946Z,99.90
2018-12-27T21:00:04.689Z,99.90
2018-12-27T21:02:35.978Z,99.90
2018-12-27T21:05:06.656Z,99.90
2018-12-27T21:07:37.319Z,99.90
2018-12-27T21:10:08.299Z,99.90
2018-12-27T21:12:39.058Z,99.90
2018-12-27T21:15:09.554Z,99.90
2018-12-27T21:17:40.128Z,99.90
2018-12-27T21:20:10.718Z,99.90
2018-12-27T21:22:41.534Z,99.90
2018-12-27T21:25:12.076Z,99.90
2018-12-27T21:27:42.820Z,99.90
2018-12-27T21:30:13.221Z,99.90
2018-12-27T21:32:44.142Z,99.90
2018-12-27T21:35:14.911Z,99.90
2018-12-27T21:37:45.595Z,99.90
2018-12-27T21:40:16.315Z,99.90
2018-12-27T21:42:47.091Z,99.90
2018-12-27T21:45:18.419Z,99.90
2018-12-27T21:47:49.129Z,99.90
2018-12-27T21:50:31.430Z,99.90
2018-12-27T21:53:02.450Z,99.90
2018-12-27T21:55:33.393Z,99.90
2018-12-27T21:58:04.166Z,99.90
2018-12-27T22:00:34.956Z,99.90
2018-12-27T22:03:05.913Z,99.90
2018-12-27T22:05:37.061Z,99.90
2018-12-27T22:08:07.922Z,99.90
2018-12-27T22:10:38.678Z,99.90
2018-12-27T22:13:09.724Z,99.90
2018-12-27T22:15:40.242Z,99.90
2018-12-27T22:18:11.983Z,99.90
2018-12-27T22:20:42.471Z,99.90
2018-12-27T22:23:12.890Z,99.90
2018-12-27T22:25:45.309Z,99.90
2018-12-27T22:28:15.918Z,99.90
2018-12-27T22:30:46.444Z,99.90
2018-12-27T22:33:17.030Z,99.90
2018-12-27T22:35:47.606Z,99.90
2018-12-27T22:38:18.188Z,99.90
2018-12-27T22:40:48.824Z,99.90
2018-12-27T22:43:19.280Z,99.90
2018-12-27T22:45:49.806Z,99.90
2018-12-27T22:48:20.574Z,99.90
2018-12-27T22:50:51.164Z,99.90
2018-12-27T22:53:21.992Z,99.90
2018-12-27T22:55:57.618Z,99.90
2018-12-27T22:58:28.213Z,99.90
2018-12-27T23:00:58.930Z,99.90
2018-12-27T23:03:30.528Z,99.90
2018-12-27T23:06:01.258Z,99.90
2018-12-27T23:08:31.738Z,99.90
2018-12-27T23:11:02.678Z,99.90
2018-12-27T23:13:33.281Z,99.90
2018-12-27T23:16:03.816Z,99.90
2018-12-27T23:18:34.449Z,99.90
2018-12-27T23:21:04.948Z,99.90
2018-12-27T23:23:35.775Z,99.90
2018-12-27T23:26:06.500Z,99.90
2018-12-27T23:28:37.188Z,99.90
2018-12-27T23:31:07.601Z,99.90
2018-12-27T23:33:37.987Z,99.90
2018-12-27T23:36:08.551Z,99.90
2018-12-27T23:38:39.003Z,99.90
2018-12-27T23:41:09.695Z,99.90
2018-12-27T23:43:40.637Z,99.90
2018-12-27T23:46:11.039Z,99.90
2018-12-27T23:48:41.627Z,99.90
2018-12-27T23:51:12.176Z,99.90
2018-12-27T23:53:42.865Z,99.90
2018-12-27T23:56:13.398Z,99.90
2018-12-27T23:58:43.848Z,99.90
